createdAt,value
2023-09-17T00:01:21.831Z,8.20
2023-09-17T00:03:49.812Z,8.98
2023-09-17T00:06:16.949Z,8.48
2023-09-17T00:08:43.848Z,8.68
2023-09-17T00:11:11.461Z,8.52
2023-09-17T00:13:40.983Z,8.25
2023-09-17T00:16:08.040Z,8.65
2023-09-17T00:18:35.105Z,8.43
2023-09-17T00:21:02.145Z,8.13
2023-09-17T00:23:29.111Z,8.35
2023-09-17T00:25:56.053Z,7.82
2023-09-17T00:28:23.039Z,8.20
2023-09-17T00:30:50.081Z,8.73
2023-09-17T00:33:17.139Z,8.70
2023-09-17T00:35:44.900Z,7.50
2023-09-17T00:38:11.847Z,8.85
2023-09-17T00:40:40.415Z,6.72
2023-09-17T00:43:08.005Z,8.13
2023-09-17T00:45:35.357Z,8.52
2023-09-17T00:48:03.665Z,8.70
2023-09-17T00:50:32.495Z,8.32
2023-09-17T00:53:00.604Z,8.77
2023-09-17T00:55:30.947Z,8.63
2023-09-17T00:57:59.727Z,8.07
2023-09-17T01:00:27.341Z,8.73
2023-09-17T01:02:55.980Z,8.85
2023-09-17T01:05:23.183Z,8.52
2023-09-17T01:07:51.268Z,8.55
2023-09-17T01:10:19.365Z,8.18
2023-09-17T01:12:47.098Z,8.00
2023-09-17T01:15:14.581Z,7.60
2023-09-17T01:17:41.776Z,7.10
2023-09-17T01:20:25.995Z,8.50
2023-09-17T01:22:57.832Z,8.13
2023-09-17T01:28:06.870Z,7.93
2023-09-17T01:30:33.897Z,7.20
2023-09-17T01:33:02.323Z,8.27
2023-09-17T01:35:31.629Z,8.27
2023-09-17T01:38:01.867Z,8.25
2023-09-17T01:40:30.141Z,8.57
2023-09-17T01:42:58.487Z,9.02
2023-09-17T01:45:28.264Z,8.32
2023-09-17T01:47:56.203Z,8.00
2023-09-17T01:50:25.179Z,8.07
2023-09-17T01:52:53.261Z,7.15
2023-09-17T01:55:20.339Z,7.72
2023-09-17T01:57:47.246Z,8.32
2023-09-17T02:00:18.472Z,8.25
2023-09-17T02:02:52.837Z,8.25
2023-09-17T02:05:22.104Z,9.25
2023-09-17T02:07:49.700Z,8.73
2023-09-17T02:10:17.028Z,8.30
2023-09-17T02:12:44.013Z,7.57
2023-09-17T02:15:11.055Z,8.30
2023-09-17T02:17:38.195Z,9.05
2023-09-17T02:20:12.459Z,8.35
2023-09-17T02:22:40.411Z,8.18
2023-09-17T02:25:08.354Z,7.85
2023-09-17T02:27:35.793Z,8.30
2023-09-17T02:30:05.659Z,8.30
2023-09-17T02:32:32.908Z,8.35
2023-09-17T02:35:00.208Z,8.98
2023-09-17T02:37:27.769Z,8.85
2023-09-17T02:39:54.707Z,8.43
2023-09-17T02:42:21.672Z,8.60
2023-09-17T02:44:48.608Z,9.40
2023-09-17T02:47:16.528Z,9.10
2023-09-17T02:49:43.581Z,8.45
2023-09-17T02:52:11.313Z,8.23
2023-09-17T02:54:38.341Z,8.57
2023-09-17T02:57:05.395Z,8.57
2023-09-17T02:59:35.718Z,8.50
2023-09-17T03:02:02.937Z,8.15
2023-09-17T03:04:30.225Z,9.35
2023-09-17T03:06:57.876Z,9.20
2023-09-17T03:09:26.238Z,8.68
2023-09-17T03:11:53.294Z,7.45
2023-09-17T03:14:21.518Z,7.47
2023-09-17T03:16:48.549Z,7.55
2023-09-17T03:19:16.257Z,7.22
2023-09-17T03:21:43.300Z,6.50
2023-09-17T03:24:10.387Z,6.18
2023-09-17T03:26:39.296Z,6.65
2023-09-17T03:29:06.834Z,8.55
2023-09-17T03:31:34.111Z,10.30
2023-09-17T03:34:01.385Z,10.23
2023-09-17T03:36:28.297Z,10.40
2023-09-17T03:38:55.500Z,10.43
2023-09-17T03:41:22.938Z,10.50
2023-09-17T03:43:50.226Z,10.35
2023-09-17T03:46:17.471Z,10.85
2023-09-17T03:48:44.571Z,11.00
2023-09-17T03:51:11.912Z,11.80
2023-09-17T03:53:39.361Z,12.10
2023-09-17T03:56:06.305Z,11.90
2023-09-17T03:58:33.476Z,11.18
2023-09-17T04:01:01.112Z,11.43
2023-09-17T04:03:28.140Z,11.60
2023-09-17T04:05:55.075Z,12.18
2023-09-17T04:08:23.300Z,13.48
2023-09-17T04:10:54.624Z,12.40
2023-09-17T04:13:21.510Z,13.52
2023-09-17T04:15:50.301Z,13.23
2023-09-17T04:18:17.133Z,12.88
2023-09-17T04:20:44.185Z,11.98
2023-09-17T04:23:11.063Z,12.57
2023-09-17T04:25:38.129Z,12.63
2023-09-17T04:28:06.552Z,12.77
2023-09-17T04:30:33.500Z,13.23
2023-09-17T04:33:02.910Z,13.90
2023-09-17T04:35:29.967Z,13.43
2023-09-17T04:37:57.015Z,13.18
2023-09-17T04:40:27.261Z,12.20
2023-09-17T04:42:54.926Z,11.77
2023-09-17T04:45:39.240Z,12.73
2023-09-17T04:48:07.175Z,13.02
2023-09-17T04:50:35.577Z,13.10
2023-09-17T04:53:03.369Z,12.77
2023-09-17T04:55:30.588Z,12.32
2023-09-17T04:57:57.555Z,12.40
2023-09-17T05:00:24.528Z,13.20
2023-09-17T05:02:51.727Z,12.52
2023-09-17T05:05:23.990Z,12.40
2023-09-17T05:07:52.219Z,12.38
2023-09-17T05:10:19.353Z,13.32
2023-09-17T05:12:46.449Z,12.75
2023-09-17T05:15:13.634Z,12.95
2023-09-17T05:17:41.041Z,12.70
2023-09-17T05:20:08.782Z,13.05
2023-09-17T05:22:36.803Z,12.20
2023-09-17T05:25:09.749Z,12.45
2023-09-17T05:27:37.028Z,12.77
2023-09-17T05:30:05.167Z,12.93
2023-09-17T05:32:32.369Z,13.13
2023-09-17T05:35:04.728Z,13.07
2023-09-17T05:37:32.417Z,13.02
2023-09-17T05:40:00.073Z,11.80
2023-09-17T05:42:27.602Z,11.25
2023-09-17T05:44:54.635Z,11.90
2023-09-17T05:47:22.457Z,11.30
2023-09-17T05:49:49.480Z,10.93
2023-09-17T05:52:17.585Z,9.63
2023-09-17T05:54:44.582Z,10.65
2023-09-17T05:57:12.548Z,10.73
2023-09-17T05:59:39.500Z,10.68
2023-09-17T06:02:07.424Z,11.00
2023-09-17T06:04:34.431Z,11.38
2023-09-17T06:07:01.374Z,11.32
2023-09-17T06:09:28.664Z,10.40
2023-09-17T06:11:55.619Z,10.73
2023-09-17T06:14:22.586Z,10.02
2023-09-17T06:16:57.500Z,10.30
2023-09-17T06:19:26.833Z,9.98
2023-09-17T06:21:54.886Z,10.75
2023-09-17T06:24:22.147Z,11.10
2023-09-17T06:26:49.153Z,10.07
2023-09-17T06:29:17.012Z,10.00
2023-09-17T06:31:44.419Z,9.68
2023-09-17T06:34:11.719Z,12.20
2023-09-17T06:36:39.448Z,11.68
2023-09-17T06:39:07.669Z,11.57
2023-09-17T06:41:38.203Z,11.90
2023-09-17T06:44:07.229Z,11.48
2023-09-17T06:46:34.461Z,11.82
2023-09-17T06:49:01.931Z,12.32
2023-09-17T06:51:28.874Z,12.18
2023-09-17T06:53:55.932Z,12.13
2023-09-17T06:56:26.027Z,11.73
2023-09-17T06:58:52.981Z,11.63
2023-09-17T07:01:20.570Z,11.95
2023-09-17T07:03:48.483Z,12.18
2023-09-17T07:06:15.524Z,10.88
2023-09-17T07:08:42.386Z,11.07
2023-09-17T07:11:09.464Z,10.90
2023-09-17T07:13:36.595Z,12.73
2023-09-17T07:16:03.518Z,11.45
2023-09-17T07:18:32.990Z,10.77
2023-09-17T07:20:59.988Z,11.35
2023-09-17T07:23:26.981Z,11.18
2023-09-17T07:25:54.345Z,10.70
2023-09-17T07:28:21.972Z,10.63
2023-09-17T07:30:57.188Z,11.68
2023-09-17T07:33:24.728Z,11.85
2023-09-17T07:35:51.923Z,10.80
2023-09-17T07:38:18.956Z,10.65
2023-09-17T07:40:46.937Z,11.93
2023-09-17T07:43:13.969Z,11.68
2023-09-17T07:45:40.935Z,12.18
2023-09-17T07:48:08.130Z,11.35
2023-09-17T07:50:35.072Z,11.38
2023-09-17T07:53:03.551Z,11.63
2023-09-17T07:55:31.390Z,12.40
2023-09-17T07:57:58.568Z,12.35
2023-09-17T08:00:26.374Z,13.07
2023-09-17T08:02:53.663Z,12.05
2023-09-17T08:05:20.838Z,13.43
2023-09-17T08:07:47.888Z,12.25
2023-09-17T08:10:15.442Z,12.82
2023-09-17T08:12:42.463Z,11.73
2023-09-17T08:15:09.793Z,12.00
2023-09-17T08:17:38.111Z,11.25
2023-09-17T08:20:06.991Z,11.20
2023-09-17T08:22:34.150Z,10.48
2023-09-17T08:25:01.033Z,10.50
2023-09-17T08:27:28.077Z,11.70
2023-09-17T08:29:55.081Z,10.25
2023-09-17T08:32:21.979Z,9.82
2023-09-17T08:34:48.906Z,11.50
2023-09-17T08:37:16.062Z,10.65
2023-09-17T08:39:43.738Z,9.93
2023-09-17T08:42:11.082Z,11.95
2023-09-17T08:44:39.828Z,11.23
2023-09-17T08:47:06.855Z,11.88
2023-09-17T08:49:33.747Z,10.45
2023-09-17T08:52:05.526Z,10.85
2023-09-17T08:54:41.877Z,11.27
2023-09-17T08:57:11.844Z,10.27
2023-09-17T08:59:53.930Z,10.95
2023-09-17T09:02:27.350Z,10.25
2023-09-17T09:04:55.617Z,12.50
2023-09-17T09:07:23.655Z,12.68
2023-09-17T09:09:53.962Z,12.60
2023-09-17T09:12:22.251Z,11.47
2023-09-17T09:14:49.577Z,11.20
2023-09-17T09:17:16.517Z,13.07
2023-09-17T09:19:43.846Z,12.05
2023-09-17T09:22:10.919Z,12.50
2023-09-17T09:24:48.743Z,11.57
2023-09-17T09:27:15.997Z,12.40
2023-09-17T09:29:45.993Z,11.75
2023-09-17T09:32:14.060Z,12.38
2023-09-17T09:34:44.815Z,12.55
2023-09-17T09:37:12.086Z,11.60
2023-09-17T09:39:39.901Z,11.45
2023-09-17T09:42:08.839Z,11.77
2023-09-17T09:44:37.337Z,11.68
2023-09-17T09:47:05.834Z,11.90
2023-09-17T09:49:43.295Z,10.27
2023-09-17T09:52:13.088Z,11.45
2023-09-17T09:54:41.912Z,11.95
2023-09-17T09:57:09.172Z,11.95
2023-09-17T09:59:37.916Z,13.50
2023-09-17T10:02:06.330Z,11.23
2023-09-17T10:04:38.973Z,11.82
2023-09-17T10:07:08.180Z,11.25
2023-09-17T10:09:35.781Z,10.98
2023-09-17T10:12:03.391Z,11.00
2023-09-17T10:14:31.282Z,11.20
2023-09-17T10:17:02.412Z,12.05
2023-09-17T10:19:32.380Z,11.98
2023-09-17T10:22:00.244Z,11.02
2023-09-17T10:24:28.482Z,9.88
2023-09-17T10:26:56.628Z,9.43
2023-09-17T10:29:24.686Z,8.57
2023-09-17T10:31:52.592Z,10.30
2023-09-17T10:34:20.835Z,9.77
2023-09-17T10:36:50.269Z,8.70
2023-09-17T10:39:19.592Z,8.65
2023-09-17T10:41:49.757Z,8.18
2023-09-17T10:44:19.378Z,10.27
2023-09-17T10:46:47.532Z,8.93
2023-09-17T10:49:15.828Z,9.70
2023-09-17T10:51:45.379Z,9.20
2023-09-17T10:54:12.654Z,8.95
2023-09-17T10:56:46.608Z,7.65
2023-09-17T10:59:17.017Z,7.20
2023-09-17T11:01:45.688Z,8.05
2023-09-17T11:04:18.414Z,8.15
2023-09-17T11:06:47.987Z,12.65
2023-09-17T11:09:15.720Z,7.82
2023-09-17T11:11:42.848Z,7.38
2023-09-17T11:14:13.650Z,6.20
2023-09-17T11:16:40.882Z,5.72
2023-09-17T11:19:11.730Z,5.65
2023-09-17T11:21:43.867Z,7.15
2023-09-17T11:24:13.683Z,6.15
2023-09-17T11:26:46.628Z,6.07
2023-09-17T11:29:14.705Z,5.63
2023-09-17T11:31:54.106Z,5.53
2023-09-17T11:34:22.973Z,5.93
2023-09-17T11:36:51.423Z,6.50
2023-09-17T11:39:21.729Z,6.70
2023-09-17T11:41:53.708Z,7.30
2023-09-17T11:44:22.596Z,6.30
2023-09-17T11:46:50.161Z,7.80
2023-09-17T11:49:19.366Z,8.27
2023-09-17T11:51:48.202Z,8.35
2023-09-17T11:54:27.102Z,7.68
2023-09-17T11:56:55.201Z,8.43
2023-09-17T11:59:23.849Z,10.25
2023-09-17T12:01:56.173Z,14.15
2023-09-17T12:04:29.171Z,10.27
2023-09-17T12:06:57.274Z,11.32
2023-09-17T12:09:32.878Z,12.77
2023-09-17T12:12:01.018Z,10.85
2023-09-17T12:14:28.270Z,10.82
2023-09-17T12:16:56.201Z,12.05
2023-09-17T12:19:23.314Z,13.18
2023-09-17T12:21:55.932Z,12.52
2023-09-17T12:24:26.931Z,13.02
2023-09-17T12:29:42.358Z,12.93
2023-09-17T12:32:13.852Z,14.48
2023-09-17T12:34:42.079Z,14.45
2023-09-17T12:37:10.798Z,15.65
2023-09-17T12:39:37.735Z,13.70
2023-09-17T12:42:04.993Z,15.77
2023-09-17T12:44:32.052Z,14.65
2023-09-17T12:46:59.799Z,13.55
2023-09-17T12:49:27.811Z,13.82
2023-09-17T12:51:55.962Z,15.82
2023-09-17T12:54:23.591Z,15.75
2023-09-17T12:56:52.332Z,15.70
2023-09-17T12:59:29.925Z,16.58
2023-09-17T13:01:59.490Z,17.63
2023-09-17T13:04:40.831Z,15.98
2023-09-17T13:09:43.774Z,14.13
2023-09-17T13:12:10.894Z,14.35
2023-09-17T13:14:39.241Z,14.25
2023-09-17T13:17:06.464Z,14.00
2023-09-17T13:19:34.206Z,14.93
2023-09-17T13:22:01.270Z,14.55
2023-09-17T13:24:28.291Z,14.77
2023-09-17T13:27:04.613Z,14.30
2023-09-17T13:29:39.508Z,13.85
2023-09-17T13:32:10.826Z,12.93
2023-09-17T13:34:48.161Z,12.90
2023-09-17T13:37:15.982Z,14.80
2023-09-17T13:39:45.340Z,14.48
2023-09-17T13:42:13.079Z,13.93
2023-09-17T13:44:40.101Z,13.13
2023-09-17T13:47:12.932Z,15.07
2023-09-17T13:49:41.176Z,14.75
2023-09-17T13:52:09.720Z,14.80
2023-09-17T13:54:39.898Z,15.85
2023-09-17T13:57:07.329Z,15.63
2023-09-17T13:59:34.458Z,15.25
2023-09-17T14:02:03.242Z,16.58
2023-09-17T14:04:30.329Z,15.65
2023-09-17T14:06:58.149Z,15.68
2023-09-17T14:09:25.275Z,18.55
2023-09-17T14:11:52.327Z,17.42
2023-09-17T14:14:19.607Z,17.00
2023-09-17T14:16:47.547Z,15.55
2023-09-17T14:19:19.596Z,15.77
2023-09-17T14:21:47.939Z,15.93
2023-09-17T14:24:15.246Z,15.07
2023-09-17T14:26:42.244Z,15.75
2023-09-17T14:29:09.233Z,15.60
2023-09-17T14:31:39.020Z,14.63
2023-09-17T14:34:07.861Z,14.77
2023-09-17T14:36:34.732Z,16.50
2023-09-17T14:39:01.667Z,14.90
2023-09-17T14:41:30.259Z,16.90
2023-09-17T14:43:57.356Z,17.50
2023-09-17T14:46:24.433Z,16.63
2023-09-17T14:48:53.952Z,17.17
2023-09-17T14:51:21.448Z,16.67
2023-09-17T14:53:48.423Z,16.25
2023-09-17T14:56:15.407Z,16.88
2023-09-17T14:58:42.453Z,14.30
2023-09-17T15:01:14.956Z,16.52
2023-09-17T15:03:46.239Z,17.13
2023-09-17T15:06:13.797Z,17.00
2023-09-17T15:08:41.510Z,16.83
2023-09-17T15:11:08.542Z,15.15
2023-09-17T15:13:35.531Z,13.77
2023-09-17T15:16:02.631Z,14.27
2023-09-17T15:18:29.572Z,14.10
2023-09-17T15:20:57.350Z,12.57
2023-09-17T15:23:24.393Z,14.10
2023-09-17T15:25:51.434Z,14.88
2023-09-17T15:28:18.727Z,14.85
2023-09-17T15:30:47.080Z,14.02
2023-09-17T15:33:14.234Z,12.40
2023-09-17T15:35:42.348Z,14.85
2023-09-17T15:38:09.962Z,13.05
2023-09-17T15:40:36.971Z,13.20
2023-09-17T15:43:03.972Z,12.82
2023-09-17T15:45:31.001Z,12.73
2023-09-17T15:47:58.141Z,13.23
2023-09-17T15:50:25.178Z,12.63
2023-09-17T15:52:52.241Z,11.00
2023-09-17T15:55:19.682Z,12.07
2023-09-17T15:57:47.431Z,11.35
2023-09-17T16:00:14.789Z,11.05
2023-09-17T16:02:42.076Z,11.95
2023-09-17T16:05:09.392Z,12.05
2023-09-17T16:07:46.284Z,11.77
2023-09-17T16:10:15.244Z,11.90
2023-09-17T16:12:42.717Z,11.98
2023-09-17T16:15:10.004Z,11.20
2023-09-17T16:17:39.010Z,11.23
2023-09-17T16:20:07.363Z,11.48
2023-09-17T16:22:35.204Z,12.18
2023-09-17T16:25:05.134Z,11.07
2023-09-17T16:27:33.765Z,11.40
2023-09-17T16:30:00.871Z,12.18
2023-09-17T16:32:30.792Z,10.82
2023-09-17T16:34:58.017Z,11.15
2023-09-17T16:37:25.051Z,11.82
2023-09-17T16:39:52.029Z,12.95
2023-09-17T16:42:19.035Z,12.75
2023-09-17T16:44:46.366Z,12.80
2023-09-17T16:47:17.252Z,12.52
2023-09-17T16:49:46.735Z,11.63
2023-09-17T16:52:14.085Z,12.50
2023-09-17T16:54:44.370Z,12.57
2023-09-17T16:57:11.253Z,13.43
2023-09-17T16:59:38.463Z,12.32
2023-09-17T17:02:07.301Z,11.95
2023-09-17T17:04:34.587Z,11.38
2023-09-17T17:07:01.905Z,11.35
2023-09-17T17:09:28.914Z,11.38
2023-09-17T17:11:56.225Z,12.48
2023-09-17T17:14:23.216Z,12.93
2023-09-17T17:16:50.178Z,12.85
2023-09-17T17:19:17.201Z,12.52
2023-09-17T17:21:44.093Z,12.32
2023-09-17T17:24:11.069Z,10.95
2023-09-17T17:26:38.424Z,11.68
2023-09-17T17:29:05.935Z,11.15
2023-09-17T17:31:32.994Z,11.98
2023-09-17T17:34:00.055Z,12.27
2023-09-17T17:36:27.029Z,11.93
2023-09-17T17:38:54.069Z,12.07
2023-09-17T17:41:21.052Z,12.40
2023-09-17T17:43:48.159Z,12.63
2023-09-17T17:46:15.366Z,12.00
2023-09-17T17:48:42.918Z,13.00
2023-09-17T17:51:09.817Z,12.95
2023-09-17T17:53:37.342Z,12.57
2023-09-17T17:56:07.835Z,13.00
2023-09-17T17:58:35.314Z,14.13
2023-09-17T18:01:02.782Z,14.32
2023-09-17T18:03:30.266Z,14.48
2023-09-17T18:05:59.747Z,13.98
2023-09-17T18:08:27.387Z,14.40
2023-09-17T18:10:54.402Z,14.60
2023-09-17T18:13:21.647Z,14.73
2023-09-17T18:15:48.802Z,15.32
2023-09-17T18:18:16.905Z,16.00
2023-09-17T18:20:44.466Z,15.10
2023-09-17T18:23:11.783Z,16.02
2023-09-17T18:25:40.015Z,14.98
2023-09-17T18:28:10.148Z,15.07
2023-09-17T18:30:37.537Z,15.02
2023-09-17T18:33:05.036Z,15.98
2023-09-17T18:35:32.001Z,14.80
2023-09-17T18:37:59.120Z,15.43
2023-09-17T18:40:26.029Z,15.43
2023-09-17T18:42:52.970Z,15.60
2023-09-17T18:45:20.241Z,17.05
2023-09-17T18:47:47.199Z,18.42
2023-09-17T18:50:14.667Z,18.67
2023-09-17T18:52:41.607Z,15.60
2023-09-17T18:55:09.896Z,17.45
2023-09-17T18:57:38.290Z,16.83
2023-09-17T19:00:05.955Z,16.33
2023-09-17T19:02:33.100Z,16.20
2023-09-17T19:05:00.268Z,16.33
2023-09-17T19:07:27.224Z,16.10
2023-09-17T19:09:54.380Z,16.50
2023-09-17T19:12:23.898Z,16.33
2023-09-17T19:14:51.161Z,15.65
2023-09-17T19:17:18.425Z,15.85
2023-09-17T19:19:45.477Z,16.10
2023-09-17T19:22:12.377Z,15.13
2023-09-17T19:24:40.151Z,16.02
2023-09-17T19:27:07.142Z,15.85
2023-09-17T19:29:34.135Z,16.25
2023-09-17T19:32:01.078Z,15.48
2023-09-17T19:34:28.096Z,15.43
2023-09-17T19:36:55.211Z,15.45
2023-09-17T19:39:22.258Z,14.50
2023-09-17T19:41:49.208Z,15.63
2023-09-17T19:44:16.293Z,16.00
2023-09-17T19:46:43.258Z,15.77
2023-09-17T19:49:10.265Z,15.98
2023-09-17T19:51:37.470Z,14.68
2023-09-17T19:54:05.423Z,15.88
2023-09-17T19:56:33.017Z,16.35
2023-09-17T19:59:00.681Z,15.23
2023-09-17T20:01:28.025Z,16.13
2023-09-17T20:03:56.861Z,15.05
2023-09-17T20:06:24.052Z,16.13
2023-09-17T20:08:52.297Z,16.88
2023-09-17T20:11:20.107Z,15.95
2023-09-17T20:13:47.282Z,15.85
2023-09-17T20:16:16.923Z,16.42
2023-09-17T20:18:44.713Z,15.77
2023-09-17T20:21:14.677Z,15.43
2023-09-17T20:23:41.545Z,16.90
2023-09-17T20:26:10.260Z,16.05
2023-09-17T20:28:38.285Z,15.75
2023-09-17T20:31:05.667Z,15.27
2023-09-17T20:33:32.617Z,15.43
2023-09-17T20:35:59.561Z,15.43
2023-09-17T20:38:26.622Z,14.85
2023-09-17T20:40:53.957Z,14.65
2023-09-17T20:43:20.979Z,14.82
2023-09-17T20:45:48.063Z,14.50
2023-09-17T20:48:15.601Z,14.13
2023-09-17T20:50:45.150Z,14.30
2023-09-17T20:53:12.599Z,14.50
2023-09-17T20:55:39.626Z,15.30
2023-09-17T20:58:06.871Z,14.90
2023-09-17T21:00:34.200Z,14.82
2023-09-17T21:03:01.358Z,13.77
2023-09-17T21:05:28.485Z,14.45
2023-09-17T21:07:55.476Z,14.73
2023-09-17T21:10:22.650Z,14.80
2023-09-17T21:12:49.962Z,15.50
2023-09-17T21:15:17.136Z,15.13
2023-09-17T21:17:45.345Z,14.68
2023-09-17T21:20:20.175Z,14.88
2023-09-17T21:22:49.383Z,13.73
2023-09-17T21:25:17.162Z,15.05
2023-09-17T21:27:45.187Z,13.85
2023-09-17T21:30:15.599Z,16.02
2023-09-17T21:32:45.080Z,13.48
2023-09-17T21:35:13.044Z,14.23
2023-09-17T21:37:40.312Z,14.68
2023-09-17T21:40:07.793Z,13.70
2023-09-17T21:42:36.721Z,14.15
2023-09-17T21:45:04.241Z,15.27
2023-09-17T21:47:31.543Z,15.55
2023-09-17T21:50:01.187Z,14.43
2023-09-17T21:52:31.906Z,13.50
2023-09-17T21:54:59.145Z,13.68
2023-09-17T21:57:26.568Z,13.90
2023-09-17T21:59:53.760Z,14.65
2023-09-17T22:02:21.077Z,15.75
2023-09-17T22:04:48.837Z,15.60
2023-09-17T22:07:15.867Z,15.95
2023-09-17T22:09:42.874Z,15.30
2023-09-17T22:12:12.175Z,14.95
2023-09-17T22:14:39.453Z,15.60
2023-09-17T22:17:06.480Z,15.38
2023-09-17T22:19:34.253Z,15.73
2023-09-17T22:22:01.182Z,15.45
2023-09-17T22:24:28.102Z,15.60
2023-09-17T22:26:56.464Z,15.93
2023-09-17T22:29:23.550Z,15.60
2023-09-17T22:31:50.524Z,16.30
2023-09-17T22:34:17.535Z,15.05
2023-09-17T22:36:44.526Z,15.70
2023-09-17T22:39:11.455Z,14.27
2023-09-17T22:41:38.533Z,15.25
2023-09-17T22:44:20.769Z,16.02
2023-09-17T22:46:50.239Z,15.73
2023-09-17T22:49:17.244Z,16.15
2023-09-17T22:51:44.125Z,14.65
2023-09-17T22:54:11.122Z,16.75
2023-09-17T22:56:38.170Z,15.38
2023-09-17T22:59:05.239Z,16.88
2023-09-17T23:01:33.955Z,16.08
2023-09-17T23:04:00.956Z,15.40
2023-09-17T23:06:27.984Z,16.02
2023-09-17T23:08:56.221Z,15.95
2023-09-17T23:11:23.210Z,16.63
2023-09-17T23:13:50.993Z,16.05
2023-09-17T23:16:18.269Z,17.27
2023-09-17T23:18:45.192Z,16.65
2023-09-17T23:21:16.263Z,16.55
2023-09-17T23:23:44.225Z,15.90
2023-09-17T23:26:13.640Z,16.67
2023-09-17T23:28:41.132Z,16.45
2023-09-17T23:31:11.380Z,15.63
2023-09-17T23:33:38.513Z,16.23
2023-09-17T23:36:05.892Z,16.50
2023-09-17T23:38:32.853Z,16.65
2023-09-17T23:40:59.987Z,16.48
2023-09-17T23:43:27.333Z,17.25
2023-09-17T23:45:54.256Z,17.17
2023-09-17T23:48:21.335Z,17.30
2023-09-17T23:50:52.253Z,16.30
2023-09-17T23:53:19.387Z,16.88
2023-09-17T23:55:49.715Z,17.02
2023-09-17T23:58:18.187Z,16.25
